sensor_id;sensor_type;location;lat;lon;timestamp;temperature;humidity
18654;DHT22;9456;47.824;16.228;2023-03-13T00:00:10;5.90;82.50
18654;DHT22;9456;47.824;16.228;2023-03-13T00:02:40;5.90;82.30
18654;DHT22;9456;47.824;16.228;2023-03-13T00:05:09;5.90;81.80
18654;DHT22;9456;47.824;16.228;2023-03-13T00:07:38;5.90;81.60
18654;DHT22;9456;47.824;16.228;2023-03-13T00:10:09;5.90;81.30
18654;DHT22;9456;47.824;16.228;2023-03-13T00:12:38;5.90;81.20
18654;DHT22;9456;47.824;16.228;2023-03-13T00:15:08;5.90;81.40
18654;DHT22;9456;47.824;16.228;2023-03-13T00:17:37;5.90;81.00
18654;DHT22;9456;47.824;16.228;2023-03-13T00:20:08;6.00;81.20
18654;DHT22;9456;47.824;16.228;2023-03-13T00:22:37;6.00;80.90
18654;DHT22;9456;47.824;16.228;2023-03-13T00:25:07;6.00;80.40
18654;DHT22;9456;47.824;16.228;2023-03-13T00:27:42;6.00;80.10
18654;DHT22;9456;47.824;16.228;2023-03-13T00:30:13;6.00;79.80
18654;DHT22;9456;47.824;16.228;2023-03-13T00:32:42;6.00;79.70
18654;DHT22;9456;47.824;16.228;2023-03-13T00:35:11;6.00;79.60
18654;DHT22;9456;47.824;16.228;2023-03-13T00:37:40;6.00;80.00
18654;DHT22;9456;47.824;16.228;2023-03-13T00:40:11;6.10;80.10
18654;DHT22;9456;47.824;16.228;2023-03-13T00:42:40;6.10;79.70
18654;DHT22;9456;47.824;16.228;2023-03-13T00:45:10;6.00;79.70
18654;DHT22;9456;47.824;16.228;2023-03-13T00:47:39;6.00;79.50
18654;DHT22;9456;47.824;16.228;2023-03-13T00:50:11;6.00;79.40
18654;DHT22;9456;47.824;16.228;2023-03-13T00:52:39;6.00;79.40
18654;DHT22;9456;47.824;16.228;2023-03-13T00:55:09;5.90;79.70
18654;DHT22;9456;47.824;16.228;2023-03-13T00:57:38;5.80;80.10
18654;DHT22;9456;47.824;16.228;2023-03-13T01:00:10;5.80;80.20
18654;DHT22;9456;47.824;16.228;2023-03-13T01:02:42;5.70;80.30
18654;DHT22;9456;47.824;16.228;2023-03-13T01:05:11;5.60;81.50
18654;DHT22;9456;47.824;16.228;2023-03-13T01:07:40;5.50;81.70
18654;DHT22;9456;47.824;16.228;2023-03-13T01:10:11;5.40;82.00
18654;DHT22;9456;47.824;16.228;2023-03-13T01:12:39;5.30;82.60
18654;DHT22;9456;47.824;16.228;2023-03-13T01:15:10;5.20;83.50
18654;DHT22;9456;47.824;16.228;2023-03-13T01:17:39;5.10;83.70
18654;DHT22;9456;47.824;16.228;2023-03-13T01:20:11;5.00;84.40
18654;DHT22;9456;47.824;16.228;2023-03-13T01:22:39;5.00;84.40
18654;DHT22;9456;47.824;16.228;2023-03-13T01:25:09;4.90;84.70
18654;DHT22;9456;47.824;16.228;2023-03-13T01:27:39;4.80;85.30
18654;DHT22;9456;47.824;16.228;2023-03-13T01:30:12;4.70;86.20
18654;DHT22;9456;47.824;16.228;2023-03-13T01:32:41;4.70;86.30
18654;DHT22;9456;47.824;16.228;2023-03-13T01:35:10;4.60;86.40
18654;DHT22;9456;47.824;16.228;2023-03-13T01:37:39;4.60;87.60
18654;DHT22;9456;47.824;16.228;2023-03-13T01:40:10;4.50;87.20
18654;DHT22;9456;47.824;16.228;2023-03-13T01:42:52;4.50;87.60
18654;DHT22;9456;47.824;16.228;2023-03-13T01:48:43;4.50;87.90
18654;DHT22;9456;47.824;16.228;2023-03-13T01:51:12;4.40;87.60
18654;DHT22;9456;47.824;16.228;2023-03-13T01:53:41;4.40;88.00
18654;DHT22;9456;47.824;16.228;2023-03-13T01:56:10;4.40;88.40
18654;DHT22;9456;47.824;16.228;2023-03-13T01:58:40;4.40;88.20
18654;DHT22;9456;47.824;16.228;2023-03-13T02:01:09;4.30;88.00
18654;DHT22;9456;47.824;16.228;2023-03-13T02:03:37;4.20;88.20
18654;DHT22;9456;47.824;16.228;2023-03-13T02:06:07;4.10;89.30
18654;DHT22;9456;47.824;16.228;2023-03-13T02:08:37;4.10;89.40
18654;DHT22;9456;47.824;16.228;2023-03-13T02:11:09;4.10;89.90
18654;DHT22;9456;47.824;16.228;2023-03-13T02:13:38;4.00;90.00
18654;DHT22;9456;47.824;16.228;2023-03-13T02:16:07;4.00;90.30
18654;DHT22;9456;47.824;16.228;2023-03-13T02:18:37;4.00;90.10
18654;DHT22;9456;47.824;16.228;2023-03-13T02:21:09;3.90;90.20
18654;DHT22;9456;47.824;16.228;2023-03-13T02:23:40;3.80;90.20
18654;DHT22;9456;47.824;16.228;2023-03-13T02:26:08;3.80;90.40
18654;DHT22;9456;47.824;16.228;2023-03-13T02:28:37;3.80;90.60
18654;DHT22;9456;47.824;16.228;2023-03-13T02:31:07;3.70;90.70
18654;DHT22;9456;47.824;16.228;2023-03-13T02:33:37;3.70;91.10
18654;DHT22;9456;47.824;16.228;2023-03-13T02:36:07;3.70;91.40
18654;DHT22;9456;47.824;16.228;2023-03-13T02:38:37;3.60;91.40
18654;DHT22;9456;47.824;16.228;2023-03-13T02:41:05;3.70;91.60
18654;DHT22;9456;47.824;16.228;2023-03-13T02:43:35;3.60;91.30
18654;DHT22;9456;47.824;16.228;2023-03-13T02:46:06;3.50;91.20
18654;DHT22;9456;47.824;16.228;2023-03-13T02:48:35;3.50;91.40
18654;DHT22;9456;47.824;16.228;2023-03-13T02:51:05;3.40;91.60
18654;DHT22;9456;47.824;16.228;2023-03-13T02:53:33;3.40;91.80
18654;DHT22;9456;47.824;16.228;2023-03-13T02:56:02;3.30;91.90
18654;DHT22;9456;47.824;16.228;2023-03-13T02:58:40;3.30;92.10
18654;DHT22;9456;47.824;16.228;2023-03-13T03:01:09;3.20;92.20
18654;DHT22;9456;47.824;16.228;2023-03-13T03:03:38;3.20;92.20
18654;DHT22;9456;47.824;16.228;2023-03-13T03:06:07;3.10;92.40
18654;DHT22;9456;47.824;16.228;2023-03-13T03:08:36;3.10;92.70
18654;DHT22;9456;47.824;16.228;2023-03-13T03:11:06;3.10;92.70
18654;DHT22;9456;47.824;16.228;2023-03-13T03:13:35;3.00;93.10
18654;DHT22;9456;47.824;16.228;2023-03-13T03:16:07;3.10;93.50
18654;DHT22;9456;47.824;16.228;2023-03-13T03:18:36;3.10;93.30
18654;DHT22;9456;47.824;16.228;2023-03-13T03:21:05;3.10;93.00
18654;DHT22;9456;47.824;16.228;2023-03-13T03:23:35;3.10;93.20
18654;DHT22;9456;47.824;16.228;2023-03-13T03:26:04;3.10;93.20
18654;DHT22;9456;47.824;16.228;2023-03-13T03:28:33;3.10;93.00
18654;DHT22;9456;47.824;16.228;2023-03-13T03:31:05;3.10;93.10
18654;DHT22;9456;47.824;16.228;2023-03-13T03:33:37;3.10;92.90
18654;DHT22;9456;47.824;16.228;2023-03-13T03:36:07;3.10;92.80
18654;DHT22;9456;47.824;16.228;2023-03-13T03:38:36;3.00;92.90
18654;DHT22;9456;47.824;16.228;2023-03-13T03:41:05;3.00;93.10
18654;DHT22;9456;47.824;16.228;2023-03-13T03:43:34;2.90;93.10
18654;DHT22;9456;47.824;16.228;2023-03-13T03:46:04;2.90;93.40
18654;DHT22;9456;47.824;16.228;2023-03-13T03:48:34;3.00;93.20
18654;DHT22;9456;47.824;16.228;2023-03-13T03:51:04;3.10;93.10
18654;DHT22;9456;47.824;16.228;2023-03-13T03:53:33;3.20;92.80
18654;DHT22;9456;47.824;16.228;2023-03-13T03:56:02;3.30;92.50
18654;DHT22;9456;47.824;16.228;2023-03-13T03:58:31;3.40;92.30
18654;DHT22;9456;47.824;16.228;2023-03-13T04:01:00;3.50;92.00
18654;DHT22;9456;47.824;16.228;2023-03-13T04:03:29;3.60;91.80
18654;DHT22;9456;47.824;16.228;2023-03-13T04:05:58;3.60;91.50
18654;DHT22;9456;47.824;16.228;2023-03-13T04:08:27;3.70;91.50
18654;DHT22;9456;47.824;16.228;2023-03-13T04:10:56;3.70;91.30
18654;DHT22;9456;47.824;16.228;2023-03-13T04:13:25;3.70;91.20
18654;DHT22;9456;47.824;16.228;2023-03-13T04:15:54;3.70;91.20
18654;DHT22;9456;47.824;16.228;2023-03-13T04:18:23;3.70;91.30
18654;DHT22;9456;47.824;16.228;2023-03-13T04:20:59;3.70;91.20
18654;DHT22;9456;47.824;16.228;2023-03-13T04:23:28;3.70;91.10
18654;DHT22;9456;47.824;16.228;2023-03-13T04:25:57;3.70;91.10
18654;DHT22;9456;47.824;16.228;2023-03-13T04:28:26;3.70;91.10
18654;DHT22;9456;47.824;16.228;2023-03-13T04:30:55;3.60;91.10
18654;DHT22;9456;47.824;16.228;2023-03-13T04:33:24;3.60;91.10
18654;DHT22;9456;47.824;16.228;2023-03-13T04:35:57;3.50;91.20
18654;DHT22;9456;47.824;16.228;2023-03-13T04:38:26;3.40;91.50
18654;DHT22;9456;47.824;16.228;2023-03-13T04:40:55;3.40;91.70
18654;DHT22;9456;47.824;16.228;2023-03-13T04:43:24;3.40;91.80
18654;DHT22;9456;47.824;16.228;2023-03-13T04:45:53;3.50;91.60
18654;DHT22;9456;47.824;16.228;2023-03-13T04:48:22;3.50;91.50
18654;DHT22;9456;47.824;16.228;2023-03-13T04:50:51;3.50;91.40
18654;DHT22;9456;47.824;16.228;2023-03-13T04:53:20;3.50;91.40
18654;DHT22;9456;47.824;16.228;2023-03-13T04:55:49;3.50;91.40
18654;DHT22;9456;47.824;16.228;2023-03-13T04:58:20;3.50;91.40
18654;DHT22;9456;47.824;16.228;2023-03-13T05:00:49;3.40;91.40
18654;DHT22;9456;47.824;16.228;2023-03-13T05:03:17;3.40;91.60
18654;DHT22;9456;47.824;16.228;2023-03-13T05:05:47;3.40;91.70
18654;DHT22;9456;47.824;16.228;2023-03-13T05:08:16;3.40;91.90
18654;DHT22;9456;47.824;16.228;2023-03-13T05:10:47;3.40;91.80
18654;DHT22;9456;47.824;16.228;2023-03-13T05:13:16;3.40;91.90
18654;DHT22;9456;47.824;16.228;2023-03-13T05:15:45;3.40;91.90
18654;DHT22;9456;47.824;16.228;2023-03-13T05:18:14;3.40;92.00
18654;DHT22;9456;47.824;16.228;2023-03-13T05:20:43;3.50;92.10
18654;DHT22;9456;47.824;16.228;2023-03-13T05:23:12;3.50;92.20
18654;DHT22;9456;47.824;16.228;2023-03-13T05:25:41;3.60;92.40
18654;DHT22;9456;47.824;16.228;2023-03-13T05:28:10;3.60;91.90
18654;DHT22;9456;47.824;16.228;2023-03-13T05:30:39;3.60;91.70
18654;DHT22;9456;47.824;16.228;2023-03-13T05:33:08;3.60;91.70
18654;DHT22;9456;47.824;16.228;2023-03-13T05:35:37;3.70;91.70
18654;DHT22;9456;47.824;16.228;2023-03-13T05:38:07;3.70;91.70
18654;DHT22;9456;47.824;16.228;2023-03-13T05:40:36;3.80;91.70
18654;DHT22;9456;47.824;16.228;2023-03-13T05:43:05;4.00;91.90
18654;DHT22;9456;47.824;16.228;2023-03-13T05:45:34;4.20;91.40
18654;DHT22;9456;47.824;16.228;2023-03-13T05:48:03;4.40;90.70
18654;DHT22;9456;47.824;16.228;2023-03-13T05:50:32;4.80;90.50
18654;DHT22;9456;47.824;16.228;2023-03-13T05:53:01;5.20;90.00
18654;DHT22;9456;47.824;16.228;2023-03-13T05:55:30;5.60;87.70
18654;DHT22;9456;47.824;16.228;2023-03-13T05:57:59;6.30;85.90
18654;DHT22;9456;47.824;16.228;2023-03-13T06:00:29;7.70;80.70
18654;DHT22;9456;47.824;16.228;2023-03-13T06:02:58;9.20;71.40
18654;DHT22;9456;47.824;16.228;2023-03-13T06:05:27;10.90;62.20
18654;DHT22;9456;47.824;16.228;2023-03-13T06:07:58;12.00;57.30
18654;DHT22;9456;47.824;16.228;2023-03-13T06:10:27;12.20;55.20
18654;DHT22;9456;47.824;16.228;2023-03-13T06:12:57;11.60;55.30
18654;DHT22;9456;47.824;16.228;2023-03-13T06:15:26;10.80;57.40
18654;DHT22;9456;47.824;16.228;2023-03-13T06:17:57;10.10;59.40
18654;DHT22;9456;47.824;16.228;2023-03-13T06:20:26;9.60;61.40
18654;DHT22;9456;47.824;16.228;2023-03-13T06:22:55;9.10;62.80
18654;DHT22;9456;47.824;16.228;2023-03-13T06:25:24;8.70;65.40
18654;DHT22;9456;47.824;16.228;2023-03-13T06:27:53;8.50;65.70
18654;DHT22;9456;47.824;16.228;2023-03-13T06:30:22;8.50;66.60
18654;DHT22;9456;47.824;16.228;2023-03-13T06:32:51;8.60;66.70
18654;DHT22;9456;47.824;16.228;2023-03-13T06:35:20;8.90;65.60
18654;DHT22;9456;47.824;16.228;2023-03-13T06:37:49;9.20;64.50
18654;DHT22;9456;47.824;16.228;2023-03-13T06:40:27;9.40;64.40
18654;DHT22;9456;47.824;16.228;2023-03-13T06:42:56;10.10;61.50
18654;DHT22;9456;47.824;16.228;2023-03-13T06:45:25;10.90;59.50
18654;DHT22;9456;47.824;16.228;2023-03-13T06:47:54;13.10;54.80
18654;DHT22;9456;47.824;16.228;2023-03-13T06:50:23;14.90;49.70
18654;DHT22;9456;47.824;16.228;2023-03-13T06:52:52;16.00;47.40
18654;DHT22;9456;47.824;16.228;2023-03-13T06:55:21;17.80;44.10
18654;DHT22;9456;47.824;16.228;2023-03-13T06:57:51;19.60;40.60
18654;DHT22;9456;47.824;16.228;2023-03-13T07:00:22;21.20;36.70
18654;DHT22;9456;47.824;16.228;2023-03-13T07:02:51;21.70;35.10
18654;DHT22;9456;47.824;16.228;2023-03-13T07:05:20;22.20;34.10
18654;DHT22;9456;47.824;16.228;2023-03-13T07:07:49;22.80;32.80
18654;DHT22;9456;47.824;16.228;2023-03-13T07:10:18;22.60;32.20
18654;DHT22;9456;47.824;16.228;2023-03-13T07:12:47;21.30;34.30
18654;DHT22;9456;47.824;16.228;2023-03-13T07:15:16;21.20;34.20
18654;DHT22;9456;47.824;16.228;2023-03-13T07:17:45;21.10;34.50
18654;DHT22;9456;47.824;16.228;2023-03-13T07:20:15;20.80;35.00
18654;DHT22;9456;47.824;16.228;2023-03-13T07:22:44;20.50;34.80
18654;DHT22;9456;47.824;16.228;2023-03-13T07:25:13;19.20;37.00
18654;DHT22;9456;47.824;16.228;2023-03-13T07:27:42;17.80;39.20
18654;DHT22;9456;47.824;16.228;2023-03-13T07:30:13;16.70;41.20
18654;DHT22;9456;47.824;16.228;2023-03-13T07:32:42;15.70;43.20
18654;DHT22;9456;47.824;16.228;2023-03-13T07:35:11;15.20;44.60
18654;DHT22;9456;47.824;16.228;2023-03-13T07:37:40;15.30;45.00
18654;DHT22;9456;47.824;16.228;2023-03-13T07:40:11;15.80;43.70
18654;DHT22;9456;47.824;16.228;2023-03-13T07:42:44;16.30;43.20
18654;DHT22;9456;47.824;16.228;2023-03-13T07:45:13;17.30;41.40
18654;DHT22;9456;47.824;16.228;2023-03-13T07:47:42;19.20;38.40
18654;DHT22;9456;47.824;16.228;2023-03-13T07:50:12;20.80;35.40
18654;DHT22;9456;47.824;16.228;2023-03-13T07:52:42;21.50;33.30
18654;DHT22;9456;47.824;16.228;2023-03-13T07:55:11;21.80;33.20
18654;DHT22;9456;47.824;16.228;2023-03-13T07:57:41;22.40;32.40
18654;DHT22;9456;47.824;16.228;2023-03-13T08:00:12;23.10;31.40
18654;DHT22;9456;47.824;16.228;2023-03-13T08:02:42;23.40;30.00
18654;DHT22;9456;47.824;16.228;2023-03-13T08:05:11;22.40;31.30
18654;DHT22;9456;47.824;16.228;2023-03-13T08:07:40;21.40;32.60
18654;DHT22;9456;47.824;16.228;2023-03-13T08:10:11;20.40;34.00
18654;DHT22;9456;47.824;16.228;2023-03-13T08:12:40;19.50;35.60
18654;DHT22;9456;47.824;16.228;2023-03-13T08:15:10;18.60;38.60
18654;DHT22;9456;47.824;16.228;2023-03-13T08:17:39;18.10;39.70
18654;DHT22;9456;47.824;16.228;2023-03-13T08:20:11;18.00;39.70
18654;DHT22;9456;47.824;16.228;2023-03-13T08:22:40;17.70;40.20
18654;DHT22;9456;47.824;16.228;2023-03-13T08:25:08;17.70;40.80
18654;DHT22;9456;47.824;16.228;2023-03-13T08:27:37;17.60;41.40
18654;DHT22;9456;47.824;16.228;2023-03-13T08:30:08;17.20;41.70
18654;DHT22;9456;47.824;16.228;2023-03-13T08:32:37;17.20;41.90
18654;DHT22;9456;47.824;16.228;2023-03-13T08:35:08;17.50;41.20
18654;DHT22;9456;47.824;16.228;2023-03-13T08:37:39;18.20;40.40
18654;DHT22;9456;47.824;16.228;2023-03-13T08:40:10;18.90;39.00
18654;DHT22;9456;47.824;16.228;2023-03-13T08:42:39;19.40;38.50
18654;DHT22;9456;47.824;16.228;2023-03-13T08:45:10;20.10;36.90
18654;DHT22;9456;47.824;16.228;2023-03-13T08:47:39;21.00;34.10
18654;DHT22;9456;47.824;16.228;2023-03-13T08:50:09;20.90;32.70
18654;DHT22;9456;47.824;16.228;2023-03-13T08:52:38;20.10;32.60
18654;DHT22;9456;47.824;16.228;2023-03-13T08:55:09;18.80;33.40
18654;DHT22;9456;47.824;16.228;2023-03-13T08:57:40;17.80;35.40
18654;DHT22;9456;47.824;16.228;2023-03-13T09:00:15;17.00;36.60
18654;DHT22;9456;47.824;16.228;2023-03-13T09:02:46;16.40;38.30
18654;DHT22;9456;47.824;16.228;2023-03-13T09:05:15;16.10;38.90
18654;DHT22;9456;47.824;16.228;2023-03-13T09:07:44;15.90;38.60
18654;DHT22;9456;47.824;16.228;2023-03-13T09:10:13;15.60;39.40
18654;DHT22;9456;47.824;16.228;2023-03-13T09:12:42;15.40;39.90
18654;DHT22;9456;47.824;16.228;2023-03-13T09:15:12;15.30;40.00
18654;DHT22;9456;47.824;16.228;2023-03-13T09:17:41;15.20;40.20
18654;DHT22;9456;47.824;16.228;2023-03-13T09:20:11;15.10;39.90
18654;DHT22;9456;47.824;16.228;2023-03-13T09:22:40;15.00;40.20
18654;DHT22;9456;47.824;16.228;2023-03-13T09:25:10;15.10;40.80
18654;DHT22;9456;47.824;16.228;2023-03-13T09:27:40;15.10;40.40
18654;DHT22;9456;47.824;16.228;2023-03-13T09:30:11;14.90;40.40
18654;DHT22;9456;47.824;16.228;2023-03-13T09:32:40;14.70;40.90
18654;DHT22;9456;47.824;16.228;2023-03-13T09:35:10;14.60;41.80
18654;DHT22;9456;47.824;16.228;2023-03-13T09:37:39;14.60;42.10
18654;DHT22;9456;47.824;16.228;2023-03-13T09:40:12;14.60;43.00
18654;DHT22;9456;47.824;16.228;2023-03-13T09:42:42;14.60;42.20
18654;DHT22;9456;47.824;16.228;2023-03-13T09:45:12;14.60;41.90
18654;DHT22;9456;47.824;16.228;2023-03-13T09:47:47;14.60;42.00
18654;DHT22;9456;47.824;16.228;2023-03-13T09:50:15;14.50;41.50
18654;DHT22;9456;47.824;16.228;2023-03-13T09:52:44;14.60;41.70
18654;DHT22;9456;47.824;16.228;2023-03-13T09:55:16;14.70;41.70
18654;DHT22;9456;47.824;16.228;2023-03-13T09:57:45;14.80;41.40
18654;DHT22;9456;47.824;16.228;2023-03-13T10:00:21;15.10;41.10
18654;DHT22;9456;47.824;16.228;2023-03-13T10:02:50;15.50;40.80
18654;DHT22;9456;47.824;16.228;2023-03-13T10:05:17;15.70;39.40
18654;DHT22;9456;47.824;16.228;2023-03-13T10:07:46;15.90;39.00
18654;DHT22;9456;47.824;16.228;2023-03-13T10:10:17;16.20;38.20
18654;DHT22;9456;47.824;16.228;2023-03-13T10:12:48;16.60;38.50
18654;DHT22;9456;47.824;16.228;2023-03-13T10:15:35;16.80;37.30
18654;DHT22;9456;47.824;16.228;2023-03-13T10:18:12;16.90;37.30
18654;DHT22;9456;47.824;16.228;2023-03-13T10:20:40;16.90;38.80
18654;DHT22;9456;47.824;16.228;2023-03-13T10:23:13;16.90;41.20
18654;DHT22;9456;47.824;16.228;2023-03-13T10:25:42;16.80;42.30
18654;DHT22;9456;47.824;16.228;2023-03-13T10:28:12;16.30;44.00
18654;DHT22;9456;47.824;16.228;2023-03-13T10:30:42;16.20;43.80
18654;DHT22;9456;47.824;16.228;2023-03-13T10:33:20;15.60;44.60
18654;DHT22;9456;47.824;16.228;2023-03-13T10:35:59;15.40;45.30
18654;DHT22;9456;47.824;16.228;2023-03-13T10:38:27;15.40;45.10
18654;DHT22;9456;47.824;16.228;2023-03-13T10:41:00;15.30;45.30
18654;DHT22;9456;47.824;16.228;2023-03-13T10:43:28;15.30;45.70
18654;DHT22;9456;47.824;16.228;2023-03-13T10:45:57;15.50;45.30
18654;DHT22;9456;47.824;16.228;2023-03-13T10:48:28;15.80;44.60
18654;DHT22;9456;47.824;16.228;2023-03-13T10:50:56;16.20;43.70
18654;DHT22;9456;47.824;16.228;2023-03-13T10:53:32;16.40;43.80
18654;DHT22;9456;47.824;16.228;2023-03-13T10:55:56;16.40;43.70
18654;DHT22;9456;47.824;16.228;2023-03-13T10:58:25;16.30;43.80
18654;DHT22;9456;47.824;16.228;2023-03-13T11:00:54;16.40;43.80
18654;DHT22;9456;47.824;16.228;2023-03-13T11:03:25;16.20;43.90
18654;DHT22;9456;47.824;16.228;2023-03-13T11:05:57;16.20;44.10
18654;DHT22;9456;47.824;16.228;2023-03-13T11:08:26;16.10;44.30
18654;DHT22;9456;47.824;16.228;2023-03-13T11:10:56;16.20;44.20
18654;DHT22;9456;47.824;16.228;2023-03-13T11:13:36;16.50;43.80
18654;DHT22;9456;47.824;16.228;2023-03-13T11:16:20;16.80;43.10
18654;DHT22;9456;47.824;16.228;2023-03-13T11:19:07;17.10;42.30
18654;DHT22;9456;47.824;16.228;2023-03-13T11:21:38;17.50;41.80
18654;DHT22;9456;47.824;16.228;2023-03-13T11:24:06;17.60;40.90
18654;DHT22;9456;47.824;16.228;2023-03-13T11:26:36;17.60;40.40
18654;DHT22;9456;47.824;16.228;2023-03-13T11:29:08;17.60;40.70
18654;DHT22;9456;47.824;16.228;2023-03-13T11:31:36;17.50;40.60
18654;DHT22;9456;47.824;16.228;2023-03-13T11:34:07;17.40;40.50
18654;DHT22;9456;47.824;16.228;2023-03-13T11:36:35;17.40;40.60
18654;DHT22;9456;47.824;16.228;2023-03-13T11:39:19;17.40;40.50
18654;DHT22;9456;47.824;16.228;2023-03-13T11:41:59;17.30;40.60
18654;DHT22;9456;47.824;16.228;2023-03-13T11:44:33;17.30;40.40
18654;DHT22;9456;47.824;16.228;2023-03-13T11:47:30;17.30;40.30
18654;DHT22;9456;47.824;16.228;2023-03-13T11:50:06;17.40;40.00
18654;DHT22;9456;47.824;16.228;2023-03-13T11:52:41;17.40;39.40
18654;DHT22;9456;47.824;16.228;2023-03-13T11:55:28;17.30;40.10
18654;DHT22;9456;47.824;16.228;2023-03-13T11:58:02;17.30;40.00
18654;DHT22;9456;47.824;16.228;2023-03-13T12:00:32;17.30;40.10
18654;DHT22;9456;47.824;16.228;2023-03-13T12:03:03;17.40;40.20
18654;DHT22;9456;47.824;16.228;2023-03-13T12:05:31;17.30;39.50
18654;DHT22;9456;47.824;16.228;2023-03-13T12:08:00;17.50;39.70
18654;DHT22;9456;47.824;16.228;2023-03-13T12:10:34;17.60;39.90
18654;DHT22;9456;47.824;16.228;2023-03-13T12:13:04;17.70;39.30
18654;DHT22;9456;47.824;16.228;2023-03-13T12:15:33;17.70;39.20
18654;DHT22;9456;47.824;16.228;2023-03-13T12:18:04;17.50;39.70
18654;DHT22;9456;47.824;16.228;2023-03-13T12:20:35;17.50;39.30
18654;DHT22;9456;47.824;16.228;2023-03-13T12:23:06;17.60;39.00
18654;DHT22;9456;47.824;16.228;2023-03-13T12:25:33;17.70;39.10
18654;DHT22;9456;47.824;16.228;2023-03-13T12:28:03;17.70;38.50
18654;DHT22;9456;47.824;16.228;2023-03-13T12:30:34;17.60;39.10
18654;DHT22;9456;47.824;16.228;2023-03-13T12:33:04;17.30;40.00
18654;DHT22;9456;47.824;16.228;2023-03-13T12:35:32;17.20;39.60
18654;DHT22;9456;47.824;16.228;2023-03-13T12:38:02;17.10;40.20
18654;DHT22;9456;47.824;16.228;2023-03-13T12:40:31;17.20;40.00
18654;DHT22;9456;47.824;16.228;2023-03-13T12:43:03;17.40;40.20
18654;DHT22;9456;47.824;16.228;2023-03-13T12:45:31;17.50;39.60
18654;DHT22;9456;47.824;16.228;2023-03-13T12:51:13;17.40;39.50
18654;DHT22;9456;47.824;16.228;2023-03-13T12:53:59;17.40;39.70
18654;DHT22;9456;47.824;16.228;2023-03-13T12:56:52;17.50;39.90
18654;DHT22;9456;47.824;16.228;2023-03-13T12:59:22;17.40;39.40
18654;DHT22;9456;47.824;16.228;2023-03-13T13:01:51;17.40;39.90
18654;DHT22;9456;47.824;16.228;2023-03-13T13:04:20;17.20;39.50
18654;DHT22;9456;47.824;16.228;2023-03-13T13:06:56;17.10;39.90
18654;DHT22;9456;47.824;16.228;2023-03-13T13:09:29;17.10;39.80
18654;DHT22;9456;47.824;16.228;2023-03-13T13:11:57;17.20;40.00
18654;DHT22;9456;47.824;16.228;2023-03-13T13:15:10;17.30;39.60
18654;DHT22;9456;47.824;16.228;2023-03-13T13:20:46;17.60;39.00
18654;DHT22;9456;47.824;16.228;2023-03-13T13:23:35;17.90;38.60
18654;DHT22;9456;47.824;16.228;2023-03-13T13:32:44;18.40;36.90
18654;DHT22;9456;47.824;16.228;2023-03-13T13:35:32;18.40;36.50
18654;DHT22;9456;47.824;16.228;2023-03-13T13:38:31;18.50;36.90
18654;DHT22;9456;47.824;16.228;2023-03-13T13:41:03;18.70;36.30
18654;DHT22;9456;47.824;16.228;2023-03-13T13:43:33;18.80;36.70
18654;DHT22;9456;47.824;16.228;2023-03-13T13:46:03;18.80;36.50
18654;DHT22;9456;47.824;16.228;2023-03-13T13:48:33;18.60;36.60
18654;DHT22;9456;47.824;16.228;2023-03-13T13:51:22;18.60;36.50
18654;DHT22;9456;47.824;16.228;2023-03-13T13:53:52;18.60;37.40
18654;DHT22;9456;47.824;16.228;2023-03-13T13:56:30;18.60;37.30
18654;DHT22;9456;47.824;16.228;2023-03-13T13:59:00;18.50;37.40
18654;DHT22;9456;47.824;16.228;2023-03-13T14:01:28;18.40;37.30
18654;DHT22;9456;47.824;16.228;2023-03-13T14:04:01;18.40;37.60
18654;DHT22;9456;47.824;16.228;2023-03-13T14:06:28;18.30;36.70
18654;DHT22;9456;47.824;16.228;2023-03-13T14:09:00;18.30;36.50
18654;DHT22;9456;47.824;16.228;2023-03-13T14:11:27;18.20;36.90
18654;DHT22;9456;47.824;16.228;2023-03-13T14:14:13;18.30;37.40
18654;DHT22;9456;47.824;16.228;2023-03-13T14:16:44;18.30;37.50
18654;DHT22;9456;47.824;16.228;2023-03-13T14:19:25;18.30;37.30
18654;DHT22;9456;47.824;16.228;2023-03-13T14:22:02;18.40;37.60
18654;DHT22;9456;47.824;16.228;2023-03-13T14:24:29;18.40;37.10
18654;DHT22;9456;47.824;16.228;2023-03-13T14:26:59;18.50;37.20
18654;DHT22;9456;47.824;16.228;2023-03-13T14:29:27;18.40;36.80
18654;DHT22;9456;47.824;16.228;2023-03-13T14:31:57;18.40;37.10
18654;DHT22;9456;47.824;16.228;2023-03-13T14:34:26;18.30;37.30
18654;DHT22;9456;47.824;16.228;2023-03-13T14:36:55;18.30;37.50
18654;DHT22;9456;47.824;16.228;2023-03-13T14:39:37;18.30;37.80
18654;DHT22;9456;47.824;16.228;2023-03-13T14:42:08;18.30;38.10
18654;DHT22;9456;47.824;16.228;2023-03-13T14:44:37;18.40;37.90
18654;DHT22;9456;47.824;16.228;2023-03-13T14:47:07;18.40;37.80
18654;DHT22;9456;47.824;16.228;2023-03-13T14:49:35;18.20;38.00
18654;DHT22;9456;47.824;16.228;2023-03-13T14:52:05;18.10;38.40
18654;DHT22;9456;47.824;16.228;2023-03-13T14:54:34;17.90;38.90
18654;DHT22;9456;47.824;16.228;2023-03-13T14:57:13;17.70;39.30
18654;DHT22;9456;47.824;16.228;2023-03-13T14:59:41;17.60;40.00
18654;DHT22;9456;47.824;16.228;2023-03-13T15:02:21;17.50;40.50
18654;DHT22;9456;47.824;16.228;2023-03-13T15:04:51;17.30;40.30
18654;DHT22;9456;47.824;16.228;2023-03-13T15:07:20;17.10;40.40
18654;DHT22;9456;47.824;16.228;2023-03-13T15:09:50;17.00;41.00
18654;DHT22;9456;47.824;16.228;2023-03-13T15:12:19;16.80;41.00
18654;DHT22;9456;47.824;16.228;2023-03-13T15:14:47;16.70;41.20
18654;DHT22;9456;47.824;16.228;2023-03-13T15:17:18;16.50;41.60
18654;DHT22;9456;47.824;16.228;2023-03-13T15:19:50;16.40;41.80
18654;DHT22;9456;47.824;16.228;2023-03-13T15:22:21;16.30;42.20
18654;DHT22;9456;47.824;16.228;2023-03-13T15:24:50;16.10;42.40
18654;DHT22;9456;47.824;16.228;2023-03-13T15:27:19;16.00;42.60
18654;DHT22;9456;47.824;16.228;2023-03-13T15:29:48;16.00;42.90
18654;DHT22;9456;47.824;16.228;2023-03-13T15:32:21;15.90;43.10
18654;DHT22;9456;47.824;16.228;2023-03-13T15:34:49;15.80;43.20
18654;DHT22;9456;47.824;16.228;2023-03-13T15:37:18;15.70;43.30
18654;DHT22;9456;47.824;16.228;2023-03-13T15:39:47;15.70;43.60
18654;DHT22;9456;47.824;16.228;2023-03-13T15:42:16;15.60;43.80
18654;DHT22;9456;47.824;16.228;2023-03-13T15:44:45;15.40;43.90
18654;DHT22;9456;47.824;16.228;2023-03-13T15:47:16;15.40;44.20
18654;DHT22;9456;47.824;16.228;2023-03-13T15:49:44;15.30;44.40
18654;DHT22;9456;47.824;16.228;2023-03-13T15:52:15;15.20;44.60
18654;DHT22;9456;47.824;16.228;2023-03-13T15:54:44;15.10;44.90
18654;DHT22;9456;47.824;16.228;2023-03-13T15:57:14;15.10;44.90
18654;DHT22;9456;47.824;16.228;2023-03-13T15:59:43;15.00;45.30
18654;DHT22;9456;47.824;16.228;2023-03-13T16:02:15;14.90;45.10
18654;DHT22;9456;47.824;16.228;2023-03-13T16:04:43;14.90;45.30
18654;DHT22;9456;47.824;16.228;2023-03-13T16:07:13;14.80;45.90
18654;DHT22;9456;47.824;16.228;2023-03-13T16:09:42;14.80;45.50
18654;DHT22;9456;47.824;16.228;2023-03-13T16:12:11;14.70;45.60
18654;DHT22;9456;47.824;16.228;2023-03-13T16:14:40;14.60;45.70